Weather Data

Pearl Creek Farm: 8878 N Farm Road 75, Walnut Grove MO 65770

<== Previous Day (Friday 08 Aug 2008) | Next Day (Sunday 10 Aug 2008) ==>

Summary Precipitation Data For Saturday 09 August 2008

ElementValueUnits
Precipitation0.28"
Notes(none)
SourceSpringfield-Branson National Airport (SGF)

Summary Temperature Data For Saturday 09 August 2008

ElementValueUnits
High Temperature75 oF
Low Temperature63 oF
Average Temperature69 oF
High Humidity96 %
Low Humidity64 %
Average Humidity82 %
SourceSpringfield-Branson National Airport (SGF)

Detail Temperature Data For Saturday 09 August 2008

Date / TimeTemp (F)RH (%)Dew Pt (F)Report Date / TimeSource
2008-08-09 12:52:00 72 84 67.0 2017-12-29 19:14:24.89625 Springfield-Branson National Airport (SGF)
2008-08-09 13:52:00 70 90 67.0 2017-12-29 19:14:24.89625 Springfield-Branson National Airport (SGF)
2008-08-09 14:52:00 69 90 66.0 2017-12-29 19:14:24.89625 Springfield-Branson National Airport (SGF)
2008-08-09 15:52:00 69 87 65.0 2017-12-29 19:14:24.89625 Springfield-Branson National Airport (SGF)
2008-08-09 16:52:00 69 93 67.0 2017-12-29 19:14:24.89625 Springfield-Branson National Airport (SGF)
2008-08-09 17:52:00 69 96 68.0 2017-12-29 19:14:24.89625 Springfield-Branson National Airport (SGF)
2008-08-09 09:52:00 75 64 62.0 2017-12-29 19:14:24.89625 Springfield-Branson National Airport (SGF)
2008-08-09 10:52:00 75 66 63.0 2017-12-29 19:14:24.89625 Springfield-Branson National Airport (SGF)
2008-08-09 11:52:00 74 71 64.0 2017-12-29 19:14:24.89625 Springfield-Branson National Airport (SGF)
2008-08-09 18:52:00 69 93 67.0 2017-12-29 19:14:24.89625 Springfield-Branson National Airport (SGF)
2008-08-09 19:52:00 69 90 66.0 2017-12-29 19:14:24.89625 Springfield-Branson National Airport (SGF)
2008-08-09 20:52:00 69 93 67.0 2017-12-29 19:14:24.89625 Springfield-Branson National Airport (SGF)
2008-08-09 21:52:00 69 90 66.0 2017-12-29 19:14:24.89625 Springfield-Branson National Airport (SGF)
2008-08-09 22:52:00 69 90 66.0 2017-12-29 19:14:24.89625 Springfield-Branson National Airport (SGF)
2008-08-09 23:52:00 69 90 66.0 2017-12-29 19:14:24.89625 Springfield-Branson National Airport (SGF)
2008-08-09 00:52:00 65 76 57.0 2017-12-29 19:14:24.89625 Springfield-Branson National Airport (SGF)
2008-08-09 01:52:00 64 78 57.0 2017-12-29 19:14:24.89625 Springfield-Branson National Airport (SGF)
2008-08-09 02:52:00 64 78 57.0 2017-12-29 19:14:24.89625 Springfield-Branson National Airport (SGF)
2008-08-09 03:52:00 63 81 57.0 2017-12-29 19:14:24.89625 Springfield-Branson National Airport (SGF)
2008-08-09 04:52:00 64 78 57.0 2017-12-29 19:14:24.89625 Springfield-Branson National Airport (SGF)
2008-08-09 05:52:00 63 84 58.0 2017-12-29 19:14:24.89625 Springfield-Branson National Airport (SGF)
2008-08-09 06:52:00 68 76 60.0 2017-12-29 19:14:24.89625 Springfield-Branson National Airport (SGF)
2008-08-09 07:52:00 72 68 61.0 2017-12-29 19:14:24.89625 Springfield-Branson National Airport (SGF)
2008-08-09 08:52:00 73 69 62.0 2017-12-29 19:14:24.89625 Springfield-Branson National Airport (SGF)

A total of 24 rows are displayed.